Aérodrome :
LOGIN :

S'inscrire | Disclaimer

   EN    FR    IT 

 










Légende :    VFR   VFR Marginal   IFR   IFR Intensif   IFR Très Intensif
Visi : 
Plafond : 
>= 8 km
>= 3000ft
5 à 8 km
1000 à 3000 ft
1500m à 5 km
500 à 1000 ft
800 à 1500m
200 à 500 ft
< 800m
< 200 ft
Symboles :   Orages  Brouillard  Fortes neiges  Fortes précipitations  Vent > 20 kt
SIGMETs :   Divers  Orages  Givrage  Turbulence  Onde Orograph.  Cendres Volcan.







- Altitude de l'aérodrome : 179 ft


LIPI - Rivolto AFB Udine

DERNIER METAR :
  • 201355Z /////KT 9999 FEW100 18/10 Q1015 RMK BKN BKN130 VIS MIN 9999 WIND THR06 24002KT WIND THR24 27004KT BLU

METARs EXPIRÉS :
  • 201255Z /////KT 9999 SCT100 18/10 Q1015 RMK BKN BKN150 VIS MIN 9999 WIND THR06 20002KT WIND THR24 22004KT BLU
  • 201155Z /////KT 9999 SCT100 17/10 Q1014 RMK BKN SCT130 VIS MIN 9999 WIND THR06 24002KT WIND THR24 31002KT BLU

TAF TAF LIPI
Valide du 20 à 12h jusqu'au 20 à 21h UTC


201100Z 2012/2021 VRB05KT CAVOK
TEMPO 2012/2015 9999 SCT100
Pas de NOTAMs connus pour ce terrain.



MET'MAP, la Météo Aéronautique d'un coup d'oeil ! - Copyright ORBIFLY Décembre 2007 - Disclaimer

ORBIFLY MET'MAP TEAM :

Programmation & Développement : Alexandra Zaïnal
Conception & Développement : Baudouin d'Aumeries
Co-Programmation & Développement : Marc-Olivier Méhu
Soutien technique & logistique : Manuel Goepfert

Contact : metmap@orbifly.com




SOURCES & CREDITS :

   NOAA